Time;durP1;ratioP1;P1;durP2;ratioP2;P2;SDS_P1;SDS_P2;PMS_P1;PMS_P2;Temp;Humidity;BMP_temperature;BMP_pressure;BME280_temperature;BME280_humidity;BME280_pressure;Samples;Min_cycle;Max_cycle;Signal;HPM_P1;HPM_P2
2022/04/14 00:08:40;;;;;;;12.68;6.82;;;10.40;92.00;;;;;;4881762;29;20202;-92
2022/04/14 00:24:53;;;;;;;13.30;5.93;;;10.30;91.80;;;;;;4863381;29;20188;-92
2022/04/14 00:27:46;;;;;;;8.52;6.00;;;10.30;91.50;;;;;;4863733;29;20216;-91
2022/04/14 05:18:11;;;;;;;11.40;9.05;;;9.80;95.50;;;;;;4941548;29;20207;-92
2022/04/14 05:24:02;;;;;;;14.95;9.10;;;9.70;96.00;;;;;;4942756;29;20209;-91
2022/04/14 05:33:10;;;;;;;;;;;;;;;;;;;;;
2022/04/14 08:54:46;;;;;;;14.35;9.93;;;21.60;26.60;;;;;;4928782;29;20201;-91
2022/04/14 08:57:23;;;;;;;13.15;10.52;;;22.40;24.40;;;;;;4937557;29;20579;-88
2022/04/14 08:59:59;;;;;;;17.15;11.38;;;23.30;24.10;;;;;;4936824;29;20225;-89
2022/04/14 09:02:43;;;;;;;13.90;9.70;;;24.20;20.00;;;;;;4937506;29;20953;-87
2022/04/14 09:05:17;;;;;;;20.67;10.88;;;25.20;18.50;;;;;;4937542;29;20239;-88
2022/04/14 09:07:54;;;;;;;14.50;10.98;;;25.40;17.10;;;;;;4922081;29;20213;-88
2022/04/14 09:10:41;;;;;;;16.65;10.18;;;25.90;16.80;;;;;;4924839;29;20226;-88
2022/04/14 09:13:14;;;;;;;14.02;10.18;;;28.10;13.90;;;;;;4952959;29;20254;-89
2022/04/14 09:15:47;;;;;;;15.18;10.30;;;29.00;13.10;;;;;;4942645;29;20224;-89
2022/04/14 09:18:17;;;;;;;13.65;9.68;;;30.20;11.30;;;;;;4958352;29;20559;-89
2022/04/14 09:21:10;;;;;;;14.05;10.38;;;31.40;8.90;;;;;;4958639;29;20197;-89
2022/04/14 09:23:50;;;;;;;14.15;10.32;;;32.00;8.00;;;;;;4958426;29;20671;-90
2022/04/14 09:26:40;;;;;;;15.85;10.50;;;32.40;7.30;;;;;;4958359;28;20241;-89
2022/04/14 09:29:10;;;;;;;17.35;10.90;;;32.00;8.00;;;;;;4965342;28;20188;-87
2022/04/14 09:31:54;;;;;;;14.80;10.88;;;31.80;7.90;;;;;;4977495;28;20207;-88
2022/04/14 09:34:48;;;;;;;13.70;9.88;;;30.60;8.40;;;;;;4978287;28;20203;-88
2022/04/14 09:37:16;;;;;;;13.07;9.63;;;30.60;8.90;;;;;;4979298;28;20223;-89
2022/04/14 09:40:08;;;;;;;14.30;10.85;;;31.80;9.10;;;;;;4978351;28;20232;-89
2022/04/14 09:43:22;;;;;;;10.32;8.90;;;32.80;6.90;;;;;;4977707;28;20227;-89
2022/04/14 09:45:51;;;;;;;12.50;9.00;;;32.60;6.50;;;;;;4977211;28;20208;-89
2022/04/14 09:48:55;;;;;;;11.80;9.80;;;32.30;8.10;;;;;;4977862;28;20671;-89
2022/04/14 09:52:04;;;;;;;10.65;9.00;;;31.50;7.70;;;;;;4977032;28;20199;-88
2022/04/14 09:54:31;;;;;;;12.13;9.55;;;32.60;6.70;;;;;;4977417;28;20196;-89
2022/04/14 09:57:11;;;;;;;10.45;8.65;;;31.30;7.60;;;;;;4976666;28;20682;-89
2022/04/14 09:59:47;;;;;;;11.95;9.60;;;32.40;7.70;;;;;;4976852;28;20188;-89
2022/04/14 10:02:17;;;;;;;10.25;8.60;;;31.40;7.40;;;;;;4977362;28;20639;-89
2022/04/14 10:04:48;;;;;;;12.50;9.52;;;32.90;7.00;;;;;;4976946;28;20181;-89
2022/04/14 10:07:19;;;;;;;11.93;8.63;;;32.70;5.80;;;;;;4976963;28;20694;-89
2022/04/14 10:09:53;;;;;;;13.20;9.07;;;32.80;6.30;;;;;;4976511;28;20224;-89
2022/04/14 10:12:36;;;;;;;11.75;8.32;;;32.00;6.40;;;;;;4976971;28;20203;-89
2022/04/14 10:15:07;;;;;;;7.50;6.68;;;31.10;6.50;;;;;;4959184;28;20215;-89
2022/04/14 10:17:37;;;;;;;7.43;6.72;;;30.60;7.30;;;;;;4976880;28;20243;-89
2022/04/14 10:20:07;;;;;;;10.18;9.10;;;30.90;7.60;;;;;;4959910;28;20191;-89
2022/04/14 10:22:36;;;;;;;10.80;7.88;;;31.40;7.70;;;;;;4959671;28;20546;-89
2022/04/14 10:25:12;;;;;;;9.98;8.05;;;32.10;7.30;;;;;;4959992;28;20188;-89
2022/04/14 10:27:52;;;;;;;11.18;8.45;;;32.30;6.10;;;;;;4978376;28;20220;-89
2022/04/14 10:30:23;;;;;;;10.68;7.82;;;32.40;5.50;;;;;;4977550;28;20191;-88
2022/04/14 10:33:30;;;;;;;10.27;7.97;;;32.70;6.30;;;;;;4977758;28;20192;-88
2022/04/14 10:35:59;;;;;;;10.45;9.30;;;32.10;7.30;;;;;;4977377;28;20192;-89
2022/04/14 10:38:49;;;;;;;15.57;8.18;;;31.20;8.30;;;;;;4976798;28;20210;-89
2022/04/14 10:41:19;;;;;;;12.10;10.05;;;30.10;9.70;;;;;;4983234;28;20189;-88
2022/04/14 10:44:20;;;;;;;11.75;8.27;;;29.80;9.40;;;;;;4979787;28;20566;-89
2022/04/14 10:46:50;;;;;;;8.82;7.35;;;30.30;9.00;;;;;;4977527;28;20211;-88
2022/04/14 10:49:18;;;;;;;7.88;6.78;;;30.50;7.30;;;;;;4960379;28;20199;-88
2022/04/14 10:51:56;;;;;;;10.02;7.40;;;30.60;9.70;;;;;;4977800;28;20188;-88
2022/04/14 10:54:56;;;;;;;9.27;7.72;;;30.90;10.50;;;;;;4976508;28;20188;-88
2022/04/14 10:57:38;;;;;;;11.27;7.75;;;30.00;8.90;;;;;;4976062;28;20247;-89
2022/04/14 11:00:39;;;;;;;11.10;8.07;;;29.60;9.10;;;;;;4976644;28;20682;-88
2022/04/14 11:03:18;;;;;;;11.00;8.23;;;29.30;12.40;;;;;;4917710;29;20202;-88
2022/04/14 11:05:53;;;;;;;11.30;9.55;;;29.10;10.40;;;;;;4901470;29;20202;-88
2022/04/14 11:08:47;;;;;;;12.35;9.40;;;28.00;11.80;;;;;;4916486;29;20229;-88
2022/04/14 11:11:17;;;;;;;14.98;8.70;;;27.20;12.60;;;;;;4916547;29;20190;-88
2022/04/14 11:14:10;;;;;;;9.52;7.50;;;26.80;15.00;;;;;;4916320;29;20202;-87
2022/04/14 11:16:57;;;;;;;9.38;6.72;;;26.50;14.90;;;;;;4916399;29;20190;-87
2022/04/14 11:19:35;;;;;;;10.38;7.70;;;26.20;14.70;;;;;;4917935;29;20206;-90
2022/04/14 11:22:22;;;;;;;12.45;7.65;;;25.40;14.30;;;;;;4916101;29;20190;-89
2022/04/14 11:24:53;;;;;;;13.25;7.57;;;25.10;16.80;;;;;;4901953;29;20197;-90
2022/04/14 11:27:25;;;;;;;8.50;6.60;;;24.90;16.00;;;;;;4920465;29;20769;-90
2022/04/14 11:29:57;;;;;;;7.80;6.82;;;25.10;15.70;;;;;;4906131;29;20191;-90
2022/04/14 11:33:04;;;;;;;9.73;6.78;;;25.10;16.10;;;;;;4898735;29;20408;-92
2022/04/14 11:38:54;;;;;;;15.95;7.93;;;24.80;15.70;;;;;;4904679;29;20249;-92
2022/04/14 11:41:42;;;;;;;10.27;6.40;;;24.50;17.20;;;;;;4944101;29;20699;-92
2022/04/14 11:44:31;;;;;;;10.80;7.18;;;24.60;17.40;;;;;;4964196;28;20238;-93
2022/04/14 11:47:00;;;;;;;13.27;6.57;;;24.10;17.30;;;;;;4956299;29;20624;-93
2022/04/14 11:49:49;;;;;;;10.07;6.45;;;24.40;17.90;;;;;;4896931;29;20255;-93
2022/04/14 11:52:55;;;;;;;9.35;6.35;;;24.90;17.30;;;;;;4901203;29;20199;-92
2022/04/14 13:00:30;;;;;;;11.80;6.70;;;24.30;16.80;;;;;;4750338;30;20216;-93
2022/04/14 15:11:47;;;;;;;8.38;5.80;;;22.00;16.90;;;;;;4772010;30;20235;-92
